VAM | Vabird-VBD

Virtual Vabird! Aerolínea Virtual de habla hispana, desde 2011




 METAR AND TAF INFORMATION
METAR FOR LEBA
ADDS - METARS form results

(0952 UTC 03 July 2020)
Data provider http://aviationweather.gov/metar/data/
 
METAR text: LEBA 030930Z 23002KT CAVOK 29/08 Q1018
Conditions at: LEBA (CORDOBA AIRPORT , ES) observed 0930 UTC 03 July 2020
Temperature: 29.0°C (84°F)
Dewpoint: 8.0°C (46°F) [RH = 27%]
Pressure (altimeter): 30.06 inches Hg (1018.0 mb)
Winds: from the SW (230 degrees) at 2 MPH (2 knots; 1.0 m/s)
Visibility: 6 or more miles (10+ km)
Ceiling: ceiling and visibility are OK
Clouds: unknown
Weather: no significant weather observed at this time

METAR text: LEBA 030900Z 20001KT CAVOK 28/08 Q1018
Conditions at: LEBA (CORDOBA AIRPORT , ES) observed 0900 UTC 03 July 2020
Temperature: 28.0°C (82°F)
Dewpoint: 8.0°C (46°F) [RH = 28%]
Pressure (altimeter): 30.06 inches Hg (1018.0 mb)
Winds: from the SSW (200 degrees) at 1 MPH (1 knots; 0.5 m/s)
Visibility: 6 or more miles (10+ km)
Ceiling: ceiling and visibility are OK
Clouds: unknown
Weather: no significant weather observed at this time

Forecast for: LEBA (CORDOBA AIRPORT , ES)
Text: TAF LEBA 030800Z 0309/0318 23006KT CAVOK
Forecast period: 0900 to 1800 UTC 03 July 2020
Forecast type: FROM: standard forecast or significant change
Winds: from the SW (230 degrees) at 7 MPH (6 knots; 3.1 m/s)
Visibility: 6 or more miles 10+ km)
Ceiling: unknown
Clouds: missing
Weather: NSW  (no significant weather)

 AIRPORT MAP

 RUNWAY INFORMATION
Runway 03 Runway length 4527 ft Runway width 148 ft
Runway elevation 293 ft Runway displaced threshold 0 ft Runway heading 29
Runway 21 Runway length 4527 ft Runway width 148 ft
Runway elevation 297 ft Runway displaced threshold 0 ft Runway heading 209

 AIRPORT FREQUENCIES
Type CTAF Name CTAF Frequency 118.3 MHZ

 AIRPORT NEAR NAVIGATION AIDS
Type VOR-DME Name Cordoba Frequency 112400 KHZ
Type NDB Name Cordoba Frequency 366 KHZ